Time;durP1;ratioP1;P1;durP2;ratioP2;P2;SDS_P1;SDS_P2;PMS_P1;PMS_P2;Temp;Humidity;BMP_temperature;BMP_pressure;BME280_temperature;BME280_humidity;BME280_pressure;Samples;Min_cycle;Max_cycle;Signal;HPM_P1;HPM_P2
2020/12/02 00:01:56;;;;;;;10.07;6.90;;;7.90;99.90;;;;;;5071607;28;20208;-75
2020/12/02 00:04:24;;;;;;;10.20;6.53;;;7.90;99.90;;;;;;5084694;28;20199;-75
2020/12/02 00:06:51;;;;;;;10.17;7.20;;;7.80;99.90;;;;;;5087214;28;20292;-75
2020/12/02 00:09:20;;;;;;;13.07;7.47;;;7.90;99.90;;;;;;5083805;28;20199;-77
2020/12/02 00:11:48;;;;;;;11.33;6.77;;;7.80;99.90;;;;;;5056656;28;20239;-77
2020/12/02 00:14:24;;;;;;;10.93;6.83;;;7.90;99.90;;;;;;5052141;28;20226;-74
2020/12/02 00:16:51;;;;;;;11.77;7.07;;;8.00;99.90;;;;;;5086238;28;20599;-74
2020/12/02 00:19:18;;;;;;;10.53;7.00;;;8.00;99.90;;;;;;5052009;28;20289;-75
2020/12/02 00:22:00;;;;;;;11.63;7.10;;;8.00;99.90;;;;;;5083101;28;20228;-74
2020/12/02 00:24:27;;;;;;;10.00;6.43;;;8.10;99.90;;;;;;5088765;28;20202;-75
2020/12/02 00:26:54;;;;;;;9.43;7.23;;;8.10;99.90;;;;;;5058875;28;20211;-75
2020/12/02 00:29:20;;;;;;;11.60;7.07;;;8.20;99.90;;;;;;5055847;28;20243;-75
2020/12/02 00:31:46;;;;;;;9.33;6.57;;;8.10;99.90;;;;;;5055683;28;20218;-76
2020/12/02 00:34:13;;;;;;;11.50;6.87;;;8.10;99.90;;;;;;5052019;28;20234;-76
2020/12/02 00:36:40;;;;;;;11.60;7.30;;;8.00;99.90;;;;;;5066510;28;20833;-76
2020/12/02 00:39:10;;;;;;;10.70;6.50;;;8.00;99.90;;;;;;5055236;28;20292;-76
2020/12/02 00:41:37;;;;;;;11.93;7.17;;;8.00;99.90;;;;;;5065521;28;20599;-76
2020/12/02 00:44:03;;;;;;;10.27;6.97;;;8.20;99.90;;;;;;5063448;28;20615;-75
2020/12/02 00:46:32;;;;;;;12.23;7.87;;;8.10;99.90;;;;;;5054386;28;20211;-76
2020/12/02 00:48:58;;;;;;;12.47;7.57;;;8.00;99.90;;;;;;5074707;28;20237;-76
2020/12/02 00:51:25;;;;;;;13.87;7.80;;;8.10;99.90;;;;;;5063212;28;20273;-77
2020/12/02 00:53:51;;;;;;;12.07;7.03;;;8.10;99.90;;;;;;5083539;28;20256;-76
2020/12/02 00:56:19;;;;;;;12.43;8.27;;;7.90;99.90;;;;;;5067488;28;20697;-75
2020/12/02 00:59:04;;;;;;;12.23;7.90;;;7.90;99.90;;;;;;5055554;28;20289;-76
2020/12/02 01:01:47;;;;;;;11.97;7.53;;;8.00;99.90;;;;;;5085405;28;20204;-76
2020/12/02 01:04:17;;;;;;;11.67;7.50;;;8.10;99.90;;;;;;5071092;28;20576;-77
2020/12/02 01:06:47;;;;;;;12.80;7.93;;;8.10;99.90;;;;;;5071849;28;20280;-77
2020/12/02 01:09:15;;;;;;;12.17;7.30;;;8.00;99.90;;;;;;5088228;28;20245;-76
2020/12/02 01:11:43;;;;;;;17.23;8.17;;;8.10;99.90;;;;;;5095714;28;20233;-75
2020/12/02 01:14:13;;;;;;;11.20;7.10;;;8.10;99.90;;;;;;5085871;28;20614;-75
2020/12/02 01:16:43;;;;;;;14.93;8.17;;;8.10;99.90;;;;;;5070283;28;20205;-75
2020/12/02 01:19:11;;;;;;;13.00;8.07;;;8.00;99.90;;;;;;5077228;28;20199;-76
2020/12/02 01:21:48;;;;;;;14.70;8.57;;;8.00;99.90;;;;;;5073185;28;20240;-76
2020/12/02 01:24:21;;;;;;;18.23;9.20;;;8.00;99.90;;;;;;5089440;28;20571;-76
2020/12/02 01:27:08;;;;;;;14.73;8.60;;;8.10;99.90;;;;;;5070549;28;20629;-75
2020/12/02 01:29:34;;;;;;;15.83;8.23;;;8.00;99.90;;;;;;5094951;28;20261;-76
2020/12/02 01:32:01;;;;;;;16.90;8.87;;;8.00;99.90;;;;;;5070407;28;20248;-76
2020/12/02 01:34:28;;;;;;;14.60;8.70;;;7.90;99.90;;;;;;5068629;28;20204;-75
2020/12/02 01:37:20;;;;;;;14.10;8.27;;;7.90;99.90;;;;;;5058387;28;20655;-75
2020/12/02 01:39:56;;;;;;;13.30;8.30;;;8.00;99.90;;;;;;5067153;28;20279;-75
2020/12/02 01:42:22;;;;;;;13.50;8.17;;;8.00;99.90;;;;;;5082234;28;20285;-78
2020/12/02 01:44:49;;;;;;;14.70;8.47;;;8.00;99.90;;;;;;5069163;28;20225;-76
2020/12/02 01:47:44;;;;;;;14.80;8.37;;;8.10;99.90;;;;;;5053103;28;20603;-76
2020/12/02 01:50:38;;;;;;;14.30;7.97;;;8.10;99.90;;;;;;5070120;28;20200;-76
2020/12/02 01:53:24;;;;;;;15.23;8.40;;;8.00;99.90;;;;;;5073725;28;20609;-76
2020/12/02 01:55:59;;;;;;;14.07;9.13;;;7.90;99.90;;;;;;5073257;28;20285;-76
2020/12/02 01:58:48;;;;;;;15.53;8.63;;;8.00;99.90;;;;;;5086098;28;20246;-76
2020/12/02 02:01:22;;;;;;;12.70;7.67;;;8.00;99.90;;;;;;5087062;28;20214;-76
2020/12/02 02:03:50;;;;;;;16.43;8.70;;;7.90;99.90;;;;;;5072062;28;20205;-76
2020/12/02 02:06:22;;;;;;;14.17;8.63;;;7.90;99.90;;;;;;5083946;28;20246;-76
2020/12/02 02:08:48;;;;;;;18.40;8.67;;;7.90;99.90;;;;;;5074479;28;20287;-76
2020/12/02 02:11:19;;;;;;;15.07;8.83;;;7.90;99.90;;;;;;5067342;28;20262;-74
2020/12/02 02:14:07;;;;;;;16.63;9.40;;;7.90;99.90;;;;;;5055470;28;20552;-74
2020/12/02 02:16:40;;;;;;;17.13;9.13;;;7.90;99.90;;;;;;5103770;28;20206;-75
2020/12/02 02:19:18;;;;;;;16.00;8.50;;;7.90;99.90;;;;;;5065581;28;20202;-75
2020/12/02 02:21:49;;;;;;;18.10;9.63;;;8.00;99.90;;;;;;5086327;28;20214;-75
2020/12/02 02:24:16;;;;;;;11.57;7.70;;;7.90;99.90;;;;;;5071924;28;20204;-75
2020/12/02 02:26:54;;;;;;;15.37;8.73;;;7.90;99.90;;;;;;5076308;28;20649;-76
2020/12/02 02:29:23;;;;;;;15.70;8.00;;;7.70;99.90;;;;;;5068394;28;20526;-74
2020/12/02 02:31:51;;;;;;;16.40;9.50;;;7.70;99.90;;;;;;5071352;28;20214;-75
2020/12/02 02:34:19;;;;;;;16.23;8.53;;;7.80;99.90;;;;;;5095866;28;20283;-75
2020/12/02 02:36:46;;;;;;;14.70;8.23;;;7.80;99.90;;;;;;5073239;28;20200;-76
2020/12/02 02:39:14;;;;;;;15.33;9.13;;;7.90;99.90;;;;;;5069654;28;20198;-74
2020/12/02 02:41:40;;;;;;;12.53;8.07;;;7.90;99.90;;;;;;5068507;28;20213;-75
2020/12/02 02:44:10;;;;;;;16.07;9.23;;;8.00;99.90;;;;;;5073932;28;20221;-75
2020/12/02 02:46:36;;;;;;;16.37;8.50;;;8.00;99.90;;;;;;5079665;28;20207;-74
2020/12/02 02:49:04;;;;;;;14.93;8.93;;;7.90;99.90;;;;;;5045705;28;20733;-74
2020/12/02 02:51:32;;;;;;;16.00;9.30;;;7.90;99.90;;;;;;5066370;28;20333;-74
2020/12/02 02:53:58;;;;;;;15.03;9.30;;;7.90;99.90;;;;;;5070975;28;20610;-76
2020/12/02 02:56:25;;;;;;;13.40;8.27;;;8.00;99.90;;;;;;5061766;28;20241;-74
2020/12/02 02:58:51;;;;;;;14.13;8.63;;;7.90;99.90;;;;;;5053892;28;20292;-74
2020/12/02 03:01:18;;;;;;;16.37;8.83;;;7.90;99.90;;;;;;5056224;28;20592;-75
2020/12/02 03:03:45;;;;;;;14.83;8.57;;;7.90;99.90;;;;;;5060755;28;20296;-75
2020/12/02 03:06:11;;;;;;;17.13;8.43;;;7.80;99.90;;;;;;5056760;28;20230;-75
2020/12/02 03:08:37;;;;;;;16.10;8.93;;;7.80;99.90;;;;;;5056560;28;20218;-76
2020/12/02 03:11:06;;;;;;;13.37;8.20;;;7.80;99.90;;;;;;5066094;28;20680;-75
2020/12/02 03:13:43;;;;;;;15.73;9.00;;;7.90;99.90;;;;;;5068902;28;20228;-74
2020/12/02 03:16:54;;;;;;;14.50;8.13;;;7.90;99.90;;;;;;5067832;28;20201;-74
2020/12/02 03:19:24;;;;;;;15.57;8.27;;;8.00;99.90;;;;;;5008469;28;22138;-76
2020/12/02 03:21:54;;;;;;;13.87;7.50;;;7.90;99.90;;;;;;5006417;28;20212;-75
2020/12/02 03:24:26;;;;;;;14.57;8.63;;;7.80;99.90;;;;;;5006137;28;20376;-74
2020/12/02 03:26:52;;;;;;;18.23;9.60;;;7.80;99.90;;;;;;5023618;28;21235;-74
2020/12/02 03:29:20;;;;;;;17.87;9.03;;;8.00;99.90;;;;;;5024483;28;20684;-74
2020/12/02 03:31:46;;;;;;;13.67;8.00;;;7.70;99.90;;;;;;5007601;28;20701;-74
2020/12/02 03:34:15;;;;;;;14.90;9.10;;;7.60;99.90;;;;;;5006211;28;20201;-74
2020/12/02 03:36:42;;;;;;;19.13;9.50;;;7.80;99.90;;;;;;5003412;28;20234;-76
2020/12/02 03:39:11;;;;;;;15.60;8.17;;;7.90;99.90;;;;;;5009666;28;20228;-74
2020/12/02 03:41:39;;;;;;;16.07;8.83;;;7.80;99.90;;;;;;5006873;28;20269;-74
2020/12/02 03:44:06;;;;;;;17.27;8.70;;;7.80;99.90;;;;;;5009241;28;20233;-74
2020/12/02 03:46:33;;;;;;;15.50;8.57;;;7.80;99.90;;;;;;4988311;28;20198;-74
2020/12/02 03:49:00;;;;;;;17.27;9.13;;;7.80;99.90;;;;;;4993178;28;20217;-76
2020/12/02 03:51:26;;;;;;;15.53;9.27;;;7.80;99.90;;;;;;5064504;28;20211;-75
2020/12/02 03:53:55;;;;;;;13.87;8.20;;;7.90;99.90;;;;;;5081689;28;20272;-75
2020/12/02 03:56:21;;;;;;;15.00;8.20;;;7.70;99.90;;;;;;5064062;28;20297;-75
2020/12/02 03:58:48;;;;;;;13.33;8.03;;;7.80;99.90;;;;;;5062300;28;20209;-74
2020/12/02 04:01:16;;;;;;;15.90;8.47;;;7.80;99.90;;;;;;5078453;28;20258;-75
2020/12/02 04:03:43;;;;;;;13.67;7.67;;;7.80;99.90;;;;;;5062985;28;20340;-74
2020/12/02 04:06:10;;;;;;;16.80;10.13;;;7.80;99.90;;;;;;5071881;28;20662;-74
2020/12/02 04:08:37;;;;;;;15.07;8.50;;;7.80;99.90;;;;;;5068179;28;20208;-74
2020/12/02 04:11:05;;;;;;;15.97;9.10;;;7.80;99.90;;;;;;5066482;28;20228;-77
2020/12/02 04:13:32;;;;;;;17.93;8.70;;;7.70;99.90;;;;;;5062314;28;20633;-74
2020/12/02 04:15:58;;;;;;;14.17;8.63;;;7.70;99.90;;;;;;5069178;28;20228;-74
2020/12/02 04:18:25;;;;;;;12.70;7.73;;;7.70;99.90;;;;;;5070775;28;20619;-74
2020/12/02 04:20:51;;;;;;;15.83;8.43;;;7.60;99.90;;;;;;5070033;28;20220;-74
2020/12/02 04:23:18;;;;;;;15.33;9.50;;;7.60;99.90;;;;;;5065281;28;20246;-74
2020/12/02 04:25:44;;;;;;;14.87;8.57;;;7.70;99.90;;;;;;5053487;28;20309;-74
2020/12/02 04:28:12;;;;;;;13.43;8.43;;;7.70;99.90;;;;;;5092203;28;20201;-76
2020/12/02 04:30:39;;;;;;;17.00;9.13;;;7.80;99.90;;;;;;5062160;28;20234;-76
2020/12/02 04:33:05;;;;;;;15.20;8.23;;;7.70;99.90;;;;;;5070033;28;20201;-76
2020/12/02 04:35:32;;;;;;;16.77;9.03;;;7.60;99.90;;;;;;5087104;28;20209;-74
2020/12/02 04:37:58;;;;;;;18.27;8.63;;;7.70;99.90;;;;;;5066464;28;20214;-74
2020/12/02 04:40:33;;;;;;;14.53;8.80;;;7.80;99.90;;;;;;5052550;28;20195;-76
2020/12/02 04:43:15;;;;;;;16.07;8.80;;;7.80;99.90;;;;;;5067353;28;20205;-74
2020/12/02 04:45:42;;;;;;;17.13;9.23;;;7.70;99.90;;;;;;5070330;28;20271;-77
2020/12/02 04:48:13;;;;;;;17.67;8.87;;;7.60;99.90;;;;;;5069404;28;20247;-74
2020/12/02 04:50:39;;;;;;;14.30;8.60;;;7.60;99.90;;;;;;5060486;28;20203;-77
2020/12/02 04:53:10;;;;;;;16.10;8.87;;;7.70;99.90;;;;;;5070694;28;20646;-74
2020/12/02 04:55:37;;;;;;;16.37;9.27;;;7.80;99.90;;;;;;5083902;28;20199;-75
2020/12/02 04:58:21;;;;;;;14.57;8.83;;;7.80;99.90;;;;;;5065736;28;20551;-74
2020/12/02 05:00:47;;;;;;;17.37;9.23;;;7.80;99.90;;;;;;5081928;28;20578;-74
2020/12/02 05:03:15;;;;;;;18.20;8.53;;;7.80;99.90;;;;;;5074171;28;20287;-75
2020/12/02 05:05:43;;;;;;;16.70;9.17;;;7.70;99.90;;;;;;5073839;28;20656;-74
2020/12/02 05:08:16;;;;;;;18.63;9.67;;;7.50;99.90;;;;;;5067854;28;20268;-74
2020/12/02 05:10:43;;;;;;;16.63;9.20;;;7.70;99.90;;;;;;5072762;28;20237;-74
2020/12/02 05:13:10;;;;;;;17.30;8.80;;;7.70;99.90;;;;;;5067723;28;20239;-74
2020/12/02 05:15:37;;;;;;;21.73;9.40;;;7.70;99.90;;;;;;5059267;28;20211;-75
2020/12/02 05:18:15;;;;;;;19.47;9.80;;;7.70;99.90;;;;;;5058806;28;20591;-77
2020/12/02 05:21:20;;;;;;;16.73;9.77;;;7.80;99.90;;;;;;5064872;28;20272;-75
2020/12/02 05:24:02;;;;;;;17.40;9.30;;;7.70;99.90;;;;;;5082499;28;20623;-74
2020/12/02 05:26:31;;;;;;;16.40;9.27;;;7.70;99.90;;;;;;5070053;28;20253;-74
2020/12/02 05:28:57;;;;;;;15.60;9.07;;;7.70;99.90;;;;;;5070961;28;20269;-74
2020/12/02 05:31:31;;;;;;;15.00;9.23;;;7.80;99.90;;;;;;5054227;28;20293;-74
2020/12/02 05:34:13;;;;;;;17.50;9.23;;;7.70;99.90;;;;;;5076100;28;20206;-75
2020/12/02 05:36:50;;;;;;;17.10;9.37;;;7.70;99.90;;;;;;5067947;28;20317;-74
2020/12/02 05:39:50;;;;;;;14.97;9.07;;;7.70;99.90;;;;;;5094601;28;20202;-74
2020/12/02 05:42:46;;;;;;;16.93;9.60;;;7.50;99.90;;;;;;5071096;28;20219;-75
2020/12/02 05:45:18;;;;;;;15.57;8.57;;;7.50;99.90;;;;;;5072562;28;20204;-76
2020/12/02 05:47:50;;;;;;;15.87;8.67;;;7.60;99.90;;;;;;5086987;28;20234;-76
2020/12/02 05:50:23;;;;;;;16.70;9.77;;;7.50;99.90;;;;;;5084922;28;20678;-76
2020/12/02 05:53:00;;;;;;;15.87;8.70;;;7.50;99.90;;;;;;5069851;28;20235;-76
2020/12/02 05:55:33;;;;;;;18.07;9.33;;;7.60;99.90;;;;;;5071321;28;20666;-76
2020/12/02 05:58:08;;;;;;;17.70;8.87;;;7.60;99.90;;;;;;5062044;28;20226;-77
2020/12/02 06:00:35;;;;;;;15.30;8.90;;;7.60;99.90;;;;;;5087095;28;20366;-76
2020/12/02 06:03:03;;;;;;;17.70;9.20;;;7.70;99.90;;;;;;5089303;28;20233;-77
2020/12/02 06:05:30;;;;;;;18.00;10.33;;;7.70;99.90;;;;;;5068610;28;20202;-76
2020/12/02 06:08:04;;;;;;;16.23;9.27;;;7.70;99.90;;;;;;5052113;28;20295;-76
2020/12/02 06:10:43;;;;;;;14.10;8.87;;;7.70;99.90;;;;;;5080227;28;20563;-77
2020/12/02 06:13:37;;;;;;;17.83;9.50;;;7.70;99.90;;;;;;5074878;28;20676;-77
2020/12/02 06:16:04;;;;;;;19.13;10.10;;;7.50;99.90;;;;;;5057302;28;20245;-76
2020/12/02 06:18:36;;;;;;;19.63;10.43;;;7.50;99.90;;;;;;5085360;28;20302;-75
2020/12/02 06:21:03;;;;;;;16.23;8.83;;;7.60;99.90;;;;;;5086284;28;20667;-76
2020/12/02 06:23:45;;;;;;;15.20;8.37;;;7.60;99.90;;;;;;5065231;28;20366;-76
2020/12/02 06:26:11;;;;;;;16.03;8.87;;;7.60;99.90;;;;;;5075802;28;20258;-76
2020/12/02 06:28:38;;;;;;;19.63;9.87;;;7.70;99.90;;;;;;5073480;28;20225;-76
2020/12/02 06:31:32;;;;;;;17.63;7.87;;;7.70;99.90;;;;;;5080198;28;20297;-75
2020/12/02 06:34:20;;;;;;;16.07;8.13;;;7.70;99.90;;;;;;5085047;28;20195;-76
2020/12/02 06:37:08;;;;;;;19.03;9.47;;;7.60;99.90;;;;;;5072156;28;20239;-79
2020/12/02 06:39:40;;;;;;;17.83;8.10;;;7.50;99.90;;;;;;5069041;28;20284;-79
2020/12/02 06:42:25;;;;;;;17.23;8.63;;;7.40;99.90;;;;;;5071503;28;20198;-78
2020/12/02 06:45:15;;;;;;;13.83;8.40;;;7.40;99.90;;;;;;5068718;28;20234;-77
2020/12/02 06:47:58;;;;;;;17.03;8.67;;;7.40;99.90;;;;;;5065944;28;20237;-78
2020/12/02 06:50:28;;;;;;;16.37;9.87;;;7.50;99.90;;;;;;5092896;28;20227;-78
2020/12/02 06:53:08;;;;;;;15.40;8.70;;;7.60;99.90;;;;;;5073387;28;20632;-76
2020/12/02 06:55:35;;;;;;;18.70;9.17;;;7.50;99.90;;;;;;5072854;28;20218;-75
2020/12/02 06:58:09;;;;;;;17.33;8.60;;;7.60;99.90;;;;;;5070928;28;20582;-76
2020/12/02 07:00:48;;;;;;;20.77;9.63;;;7.50;99.90;;;;;;5089233;27;20210;-76
2020/12/02 07:03:22;;;;;;;24.80;9.03;;;7.50;99.90;;;;;;5077784;28;20227;-77
2020/12/02 07:05:52;;;;;;;21.87;9.47;;;7.50;99.90;;;;;;5069136;28;20194;-77
2020/12/02 07:08:25;;;;;;;17.50;9.37;;;7.60;99.90;;;;;;5091983;28;20257;-77
2020/12/02 07:11:07;;;;;;;17.50;8.77;;;7.60;99.90;;;;;;5093870;28;20557;-79
2020/12/02 07:13:41;;;;;;;22.07;10.37;;;7.50;99.90;;;;;;5069279;28;20203;-77
2020/12/02 07:16:21;;;;;;;18.30;9.43;;;7.50;99.90;;;;;;5077262;28;20666;-78
2020/12/02 07:19:01;;;;;;;18.57;9.47;;;7.50;99.90;;;;;;5070783;28;20211;-78
2020/12/02 07:21:42;;;;;;;18.30;9.00;;;7.50;99.90;;;;;;5081336;28;20692;-78
2020/12/02 07:24:20;;;;;;;18.53;9.67;;;7.50;99.90;;;;;;5090328;28;20224;-78
2020/12/02 07:26:47;;;;;;;18.37;9.40;;;7.50;99.90;;;;;;5084716;28;20260;-75
2020/12/02 07:29:16;;;;;;;23.33;10.63;;;7.40;99.90;;;;;;5052789;28;20202;-76
2020/12/02 07:31:42;;;;;;;21.43;10.30;;;7.50;99.90;;;;;;5084089;28;20240;-78
2020/12/02 07:34:16;;;;;;;22.37;10.20;;;7.60;99.90;;;;;;5087864;28;20201;-75
2020/12/02 07:36:43;;;;;;;21.40;9.27;;;7.50;99.90;;;;;;5063596;28;20571;-75
2020/12/02 07:39:21;;;;;;;22.13;10.07;;;7.50;99.90;;;;;;5072818;28;20650;-77
2020/12/02 07:41:54;;;;;;;23.77;10.03;;;7.60;99.90;;;;;;5073575;28;20196;-76
2020/12/02 07:44:21;;;;;;;19.30;9.40;;;7.60;99.90;;;;;;5074733;28;20195;-77
2020/12/02 07:46:51;;;;;;;22.90;9.83;;;7.60;99.90;;;;;;5082114;28;21213;-75
2020/12/02 07:49:17;;;;;;;25.47;10.00;;;7.70;99.90;;;;;;5084047;28;20286;-75
2020/12/02 07:51:49;;;;;;;22.97;9.30;;;7.60;99.90;;;;;;5067286;28;20885;-75
2020/12/02 07:54:25;;;;;;;21.60;10.30;;;7.40;99.90;;;;;;5069070;28;20190;-77
2020/12/02 07:56:53;;;;;;;20.73;9.47;;;7.40;99.90;;;;;;5064659;28;20198;-76
2020/12/02 07:59:28;;;;;;;23.27;9.77;;;7.30;99.90;;;;;;5081839;28;20853;-75
2020/12/02 08:02:00;;;;;;;22.10;9.70;;;7.30;99.90;;;;;;5071600;28;20262;-75
2020/12/02 08:04:30;;;;;;;20.80;9.80;;;7.40;99.90;;;;;;5068145;28;20220;-75
2020/12/02 08:07:10;;;;;;;20.30;9.03;;;7.30;99.90;;;;;;5087322;28;20568;-75
2020/12/02 08:09:38;;;;;;;25.70;9.87;;;7.30;99.90;;;;;;5064802;28;20681;-76
2020/12/02 08:12:15;;;;;;;21.17;9.70;;;7.40;99.90;;;;;;5065838;28;20274;-75
2020/12/02 08:14:46;;;;;;;21.07;10.10;;;7.30;99.90;;;;;;5087722;28;20685;-75
2020/12/02 08:17:15;;;;;;;19.03;9.47;;;7.20;99.90;;;;;;5083457;28;20228;-77
2020/12/02 08:19:45;;;;;;;19.53;9.20;;;7.50;99.90;;;;;;5075288;28;20261;-75
2020/12/02 08:22:23;;;;;;;19.30;9.67;;;7.30;99.90;;;;;;5079262;28;20198;-75
2020/12/02 08:25:01;;;;;;;21.97;10.03;;;7.30;99.90;;;;;;5088094;28;20212;-75
2020/12/02 08:27:29;;;;;;;24.73;9.43;;;7.30;99.90;;;;;;5078118;28;20211;-75
2020/12/02 08:29:55;;;;;;;18.57;9.00;;;7.30;99.90;;;;;;5066926;28;20287;-76
2020/12/02 08:32:37;;;;;;;15.37;8.97;;;7.30;99.90;;;;;;5040727;28;20677;-77
2020/12/02 08:35:24;;;;;;;14.43;8.03;;;7.20;99.90;;;;;;5082920;28;20191;-77
2020/12/02 08:37:57;;;;;;;17.77;8.63;;;7.20;99.90;;;;;;5066175;28;20226;-76
2020/12/02 08:40:33;;;;;;;19.53;8.70;;;7.30;99.90;;;;;;5069092;28;20237;-76
2020/12/02 08:43:24;;;;;;;19.33;8.00;;;7.20;99.90;;;;;;5079908;28;20192;-76
2020/12/02 08:46:07;;;;;;;17.00;8.20;;;7.10;99.90;;;;;;5084854;28;20195;-76
2020/12/02 08:48:35;;;;;;;14.43;7.63;;;7.20;99.90;;;;;;5078599;28;20207;-75
2020/12/02 08:51:14;;;;;;;15.23;7.40;;;7.20;99.90;;;;;;5086101;28;20237;-76
2020/12/02 08:53:41;;;;;;;17.83;8.73;;;7.20;99.90;;;;;;5082537;28;20365;-76
2020/12/02 08:56:36;;;;;;;19.10;8.47;;;7.20;99.90;;;;;;5081713;28;20255;-77
2020/12/02 08:59:04;;;;;;;21.33;8.50;;;7.20;99.90;;;;;;5071151;28;20202;-77
2020/12/02 09:01:31;;;;;;;14.30;7.77;;;7.30;99.90;;;;;;5073717;28;20665;-76
2020/12/02 09:03:57;;;;;;;19.90;7.83;;;7.30;99.90;;;;;;5048568;28;20292;-76
2020/12/02 09:06:24;;;;;;;15.77;7.27;;;7.30;99.90;;;;;;5069874;28;20273;-77
2020/12/02 09:08:52;;;;;;;17.23;8.63;;;7.40;99.90;;;;;;5066028;28;20198;-77
2020/12/02 09:11:31;;;;;;;11.00;7.00;;;7.40;99.90;;;;;;5070775;28;20238;-79
2020/12/02 09:13:58;;;;;;;13.13;6.40;;;7.50;99.90;;;;;;5073524;28;20198;-78
2020/12/02 09:16:34;;;;;;;15.00;7.77;;;7.50;99.90;;;;;;5072298;28;20563;-78
2020/12/02 09:19:01;;;;;;;16.03;8.13;;;7.60;99.90;;;;;;5068035;28;20709;-79
2020/12/02 09:21:29;;;;;;;19.73;8.50;;;7.50;99.90;;;;;;5045198;28;20212;-76
2020/12/02 09:23:56;;;;;;;17.83;8.47;;;7.50;99.90;;;;;;5085266;28;20231;-77
2020/12/02 09:26:26;;;;;;;14.77;7.03;;;7.60;99.90;;;;;;5069831;28;20269;-77
2020/12/02 09:28:53;;;;;;;18.80;7.10;;;7.60;99.90;;;;;;5073592;28;20752;-77
2020/12/02 09:31:22;;;;;;;15.40;7.20;;;7.60;99.90;;;;;;5058365;28;20251;-77
2020/12/02 09:33:49;;;;;;;18.43;8.40;;;7.70;99.90;;;;;;5083180;28;21071;-79
2020/12/02 09:36:17;;;;;;;11.70;7.07;;;7.70;99.90;;;;;;5054677;28;20206;-78
2020/12/02 09:38:46;;;;;;;13.77;6.47;;;7.70;99.90;;;;;;5065583;28;20211;-78
2020/12/02 09:41:27;;;;;;;14.97;7.17;;;7.70;99.90;;;;;;5066537;28;20199;-78
2020/12/02 09:44:31;;;;;;;15.00;8.10;;;7.70;99.90;;;;;;5065896;28;20203;-78
2020/12/02 09:47:01;;;;;;;15.23;6.50;;;7.60;99.90;;;;;;5077582;28;20850;-78
2020/12/02 09:49:31;;;;;;;13.07;6.53;;;7.70;99.90;;;;;;5071362;28;20615;-77
2020/12/02 09:52:13;;;;;;;10.70;6.80;;;7.70;99.90;;;;;;5087773;28;20207;-77
2020/12/02 09:54:41;;;;;;;12.17;7.13;;;7.70;99.90;;;;;;5065319;28;20191;-78
2020/12/02 09:57:17;;;;;;;16.77;7.87;;;7.80;99.90;;;;;;5068598;28;20240;-78
2020/12/02 09:59:44;;;;;;;13.67;6.73;;;7.70;99.90;;;;;;5070559;28;20305;-78
2020/12/02 10:02:17;;;;;;;13.77;6.97;;;7.70;99.90;;;;;;5066873;28;20190;-78
2020/12/02 10:04:52;;;;;;;15.17;7.87;;;7.70;99.90;;;;;;5071353;28;20318;-77
2020/12/02 10:07:37;;;;;;;11.53;7.13;;;7.70;99.90;;;;;;5080151;28;20546;-76
2020/12/02 10:10:35;;;;;;;16.37;7.93;;;7.70;99.90;;;;;;5069557;28;20653;-77
2020/12/02 10:13:31;;;;;;;13.77;7.87;;;7.70;99.90;;;;;;5063087;28;20234;-78
2020/12/02 10:16:07;;;;;;;12.93;6.87;;;7.70;99.90;;;;;;5074566;28;20281;-78
2020/12/02 10:19:00;;;;;;;14.00;7.63;;;7.80;99.90;;;;;;5085418;28;20232;-79
2020/12/02 10:21:46;;;;;;;11.77;7.23;;;7.70;99.90;;;;;;5083053;28;20202;-79
2020/12/02 10:24:22;;;;;;;14.77;7.13;;;7.70;99.90;;;;;;5066463;28;20245;-78
2020/12/02 10:27:07;;;;;;;12.77;7.03;;;7.60;99.90;;;;;;5067189;28;20276;-77
2020/12/02 10:29:55;;;;;;;15.97;7.40;;;7.70;99.90;;;;;;5070543;28;20626;-77
2020/12/02 10:33:09;;;;;;;15.13;7.50;;;7.70;99.90;;;;;;5064820;28;20308;-77
2020/12/02 10:35:40;;;;;;;15.70;7.27;;;7.60;99.90;;;;;;5022787;28;20307;-79
2020/12/02 10:38:22;;;;;;;16.20;7.73;;;7.70;99.90;;;;;;5068154;28;20612;-77
2020/12/02 10:40:58;;;;;;;16.97;7.90;;;7.70;99.90;;;;;;5067016;28;20215;-78
2020/12/02 10:43:42;;;;;;;16.07;7.33;;;7.70;99.90;;;;;;5073248;28;20198;-76
2020/12/02 10:46:23;;;;;;;15.63;8.00;;;7.70;99.90;;;;;;5068294;28;20198;-78
2020/12/02 10:49:02;;;;;;;16.63;7.50;;;7.70;99.90;;;;;;5087192;28;20532;-73
2020/12/02 10:51:36;;;;;;;14.80;8.73;;;7.70;99.90;;;;;;5073671;28;20990;-73
2020/12/02 10:54:13;;;;;;;13.40;7.20;;;7.80;99.90;;;;;;5068516;28;20194;-74
2020/12/02 10:56:42;;;;;;;13.20;6.93;;;7.80;99.90;;;;;;5084996;28;20285;-73
2020/12/02 10:59:13;;;;;;;14.37;7.33;;;7.80;99.90;;;;;;5068651;28;20579;-75
2020/12/02 11:01:43;;;;;;;14.70;8.17;;;7.90;99.90;;;;;;5069240;28;20203;-74
2020/12/02 11:04:15;;;;;;;14.57;7.20;;;7.80;99.90;;;;;;5071784;28;20206;-74
2020/12/02 11:07:12;;;;;;;14.80;7.57;;;7.80;99.90;;;;;;5053981;28;20211;-74
2020/12/02 11:10:00;;;;;;;13.23;6.87;;;7.80;99.90;;;;;;5069344;28;20242;-73
2020/12/02 11:12:33;;;;;;;10.70;6.63;;;7.80;99.90;;;;;;5071162;28;20236;-74
2020/12/02 11:15:07;;;;;;;11.27;6.83;;;7.90;99.90;;;;;;5087998;28;20203;-73
2020/12/02 11:17:53;;;;;;;10.67;5.73;;;7.80;99.90;;;;;;5084846;28;20195;-73
2020/12/02 11:20:47;;;;;;;10.93;6.50;;;7.90;99.90;;;;;;5080039;28;20704;-74
2020/12/02 11:23:50;;;;;;;14.03;7.00;;;7.90;99.90;;;;;;5080811;28;20516;-73
2020/12/02 11:26:29;;;;;;;10.90;6.10;;;7.90;99.90;;;;;;5080165;28;20315;-74
2020/12/02 11:28:57;;;;;;;12.63;7.13;;;7.90;99.90;;;;;;5085764;28;20211;-74
2020/12/02 11:31:48;;;;;;;12.10;6.50;;;7.90;99.90;;;;;;5083970;28;21173;-73
2020/12/02 11:34:42;;;;;;;10.70;5.73;;;7.90;99.90;;;;;;5085488;28;20527;-76
2020/12/02 11:37:13;;;;;;;12.63;6.73;;;7.90;99.90;;;;;;5080157;28;20256;-74
2020/12/02 11:40:04;;;;;;;11.77;6.57;;;7.90;99.90;;;;;;5086252;28;20346;-74
2020/12/02 11:42:45;;;;;;;9.53;5.77;;;7.90;99.90;;;;;;5082804;28;20201;-76
2020/12/02 11:45:17;;;;;;;10.30;6.70;;;7.90;99.90;;;;;;5085628;28;20208;-74
2020/12/02 11:48:11;;;;;;;9.80;6.10;;;8.00;99.90;;;;;;5094818;27;20219;-74
2020/12/02 11:51:03;;;;;;;10.93;5.90;;;7.90;99.90;;;;;;5085102;28;20203;-74
2020/12/02 11:53:50;;;;;;;16.10;6.10;;;7.90;99.90;;;;;;5037643;28;20230;-74
2020/12/02 11:56:28;;;;;;;12.03;6.83;;;7.90;99.90;;;;;;5085954;28;20206;-72
2020/12/02 11:58:59;;;;;;;10.77;5.73;;;7.80;99.90;;;;;;5079101;28;20639;-72
2020/12/02 12:01:36;;;;;;;10.90;6.13;;;7.90;99.90;;;;;;5075877;28;20347;-73
2020/12/02 12:04:39;;;;;;;11.07;6.00;;;7.90;99.90;;;;;;5081275;28;20199;-73
2020/12/02 12:07:17;;;;;;;12.60;6.07;;;7.90;99.90;;;;;;5083292;28;20206;-73
2020/12/02 12:10:06;;;;;;;12.83;6.90;;;7.80;99.90;;;;;;5080226;28;20211;-73
2020/12/02 12:12:57;;;;;;;10.87;5.77;;;8.00;99.90;;;;;;5078991;28;20244;-74
2020/12/02 12:15:32;;;;;;;15.33;7.37;;;7.90;99.90;;;;;;5082458;28;20297;-73
2020/12/02 12:18:28;;;;;;;12.80;6.90;;;8.10;99.90;;;;;;5083594;28;20645;-73
2020/12/02 12:20:58;;;;;;;12.93;6.83;;;8.10;99.90;;;;;;5080515;28;20658;-73
2020/12/02 12:23:42;;;;;;;10.53;6.23;;;8.30;99.90;;;;;;5087024;28;20598;-76
2020/12/02 12:26:10;;;;;;;12.57;6.17;;;8.20;99.90;;;;;;5081273;28;20252;-73
2020/12/02 12:28:41;;;;;;;12.43;7.37;;;8.20;99.90;;;;;;5079514;28;20299;-72
2020/12/02 12:31:30;;;;;;;14.33;7.10;;;8.10;99.90;;;;;;5082708;28;20206;-72
2020/12/02 12:34:18;;;;;;;13.73;6.80;;;8.10;99.90;;;;;;5081741;28;20215;-73
2020/12/02 12:36:48;;;;;;;12.23;6.73;;;8.10;99.90;;;;;;5070349;28;20214;-73
2020/12/02 12:39:26;;;;;;;11.37;6.80;;;8.10;99.90;;;;;;5083474;28;20202;-74
2020/12/02 12:41:53;;;;;;;11.60;6.17;;;8.20;99.90;;;;;;5085130;28;20194;-73
2020/12/02 12:44:33;;;;;;;10.77;6.30;;;8.20;99.90;;;;;;5051516;28;20203;-73
2020/12/02 12:47:31;;;;;;;13.43;6.70;;;8.10;99.90;;;;;;5083715;28;20200;-73
2020/12/02 12:49:57;;;;;;;11.90;6.20;;;8.10;99.90;;;;;;5073276;28;20226;-72
2020/12/02 12:52:28;;;;;;;12.93;7.27;;;8.10;99.90;;;;;;5082291;28;20225;-77
2020/12/02 12:54:55;;;;;;;14.47;6.83;;;8.10;99.90;;;;;;5087087;28;20410;-74
2020/12/02 12:57:27;;;;;;;13.13;6.30;;;8.00;99.90;;;;;;5091066;28;20836;-74
2020/12/02 12:59:56;;;;;;;14.23;7.40;;;8.00;99.90;;;;;;5073912;28;20544;-73
2020/12/02 13:02:26;;;;;;;12.90;7.10;;;7.70;99.90;;;;;;5091527;28;20325;-74
2020/12/02 13:04:52;;;;;;;13.17;7.43;;;7.70;99.90;;;;;;5087614;28;20243;-73
2020/12/02 13:07:25;;;;;;;14.47;6.60;;;7.60;99.90;;;;;;5069210;28;20535;-75
2020/12/02 13:10:25;;;;;;;12.40;6.83;;;7.50;99.90;;;;;;5070470;28;20225;-74
2020/12/02 13:13:01;;;;;;;12.13;6.93;;;7.50;99.90;;;;;;5084984;28;20306;-75
2020/12/02 13:15:31;;;;;;;11.47;6.23;;;7.60;99.90;;;;;;5090432;28;20271;-74
2020/12/02 13:18:06;;;;;;;11.10;6.70;;;7.70;99.90;;;;;;5086852;28;20218;-73
2020/12/02 13:20:51;;;;;;;15.07;6.47;;;7.80;99.90;;;;;;5083272;28;20649;-73
2020/12/02 13:23:26;;;;;;;11.77;7.20;;;7.70;99.90;;;;;;5087925;28;20367;-73